sensor_id;sensor_type;location;lat;lon;timestamp;temperature;humidity
19552;DHT22;9921;47.186;9.778;2023-06-22T00:00:49;23.90;99.90
19552;DHT22;9921;47.186;9.778;2023-06-22T00:03:17;23.80;99.90
19552;DHT22;9921;47.186;9.778;2023-06-22T00:05:45;23.60;99.90
19552;DHT22;9921;47.186;9.778;2023-06-22T00:08:12;23.50;99.90
19552;DHT22;9921;47.186;9.778;2023-06-22T00:10:39;23.30;99.90
19552;DHT22;9921;47.186;9.778;2023-06-22T00:13:07;23.30;99.90
19552;DHT22;9921;47.186;9.778;2023-06-22T00:15:34;23.30;99.90
19552;DHT22;9921;47.186;9.778;2023-06-22T00:18:03;23.40;99.90
19552;DHT22;9921;47.186;9.778;2023-06-22T00:20:30;23.40;99.90
19552;DHT22;9921;47.186;9.778;2023-06-22T00:22:59;23.40;99.90
19552;DHT22;9921;47.186;9.778;2023-06-22T00:25:26;23.20;99.90
19552;DHT22;9921;47.186;9.778;2023-06-22T00:27:53;23.20;99.90
19552;DHT22;9921;47.186;9.778;2023-06-22T00:30:20;23.20;99.90
19552;DHT22;9921;47.186;9.778;2023-06-22T00:32:46;23.00;99.90
19552;DHT22;9921;47.186;9.778;2023-06-22T00:35:15;22.90;99.90
19552;DHT22;9921;47.186;9.778;2023-06-22T00:37:41;22.90;99.90
19552;DHT22;9921;47.186;9.778;2023-06-22T00:40:09;22.90;99.90
19552;DHT22;9921;47.186;9.778;2023-06-22T00:42:37;22.90;99.90
19552;DHT22;9921;47.186;9.778;2023-06-22T00:45:06;22.90;99.90
19552;DHT22;9921;47.186;9.778;2023-06-22T00:47:34;22.90;99.90
19552;DHT22;9921;47.186;9.778;2023-06-22T00:50:01;23.00;99.90
19552;DHT22;9921;47.186;9.778;2023-06-22T00:52:31;23.00;99.90
19552;DHT22;9921;47.186;9.778;2023-06-22T00:55:02;22.90;99.90
19552;DHT22;9921;47.186;9.778;2023-06-22T00:57:29;22.90;99.90
19552;DHT22;9921;47.186;9.778;2023-06-22T00:59:57;22.80;99.90
19552;DHT22;9921;47.186;9.778;2023-06-22T01:02:24;22.80;99.90
19552;DHT22;9921;47.186;9.778;2023-06-22T01:04:50;22.80;99.90
19552;DHT22;9921;47.186;9.778;2023-06-22T01:07:22;22.40;99.90
19552;DHT22;9921;47.186;9.778;2023-06-22T01:10:01;22.00;99.90
19552;DHT22;9921;47.186;9.778;2023-06-22T01:12:32;22.00;99.90
19552;DHT22;9921;47.186;9.778;2023-06-22T01:15:07;22.10;99.90
19552;DHT22;9921;47.186;9.778;2023-06-22T01:17:35;22.10;99.90
19552;DHT22;9921;47.186;9.778;2023-06-22T01:20:04;22.00;99.90
19552;DHT22;9921;47.186;9.778;2023-06-22T01:22:36;22.00;99.90
19552;DHT22;9921;47.186;9.778;2023-06-22T01:25:16;22.00;99.90
19552;DHT22;9921;47.186;9.778;2023-06-22T01:27:51;22.00;99.90
19552;DHT22;9921;47.186;9.778;2023-06-22T01:30:20;22.10;99.90
19552;DHT22;9921;47.186;9.778;2023-06-22T01:32:48;22.10;99.90
19552;DHT22;9921;47.186;9.778;2023-06-22T01:35:15;22.20;99.90
19552;DHT22;9921;47.186;9.778;2023-06-22T01:37:44;22.20;99.90
19552;DHT22;9921;47.186;9.778;2023-06-22T01:40:12;22.20;99.90
19552;DHT22;9921;47.186;9.778;2023-06-22T01:42:39;22.00;99.90
19552;DHT22;9921;47.186;9.778;2023-06-22T01:45:07;21.90;99.90
19552;DHT22;9921;47.186;9.778;2023-06-22T01:47:36;21.90;99.90
19552;DHT22;9921;47.186;9.778;2023-06-22T01:50:04;22.00;99.90
19552;DHT22;9921;47.186;9.778;2023-06-22T01:52:31;21.90;99.90
19552;DHT22;9921;47.186;9.778;2023-06-22T01:54:59;21.90;99.90
19552;DHT22;9921;47.186;9.778;2023-06-22T01:57:26;21.80;99.90
19552;DHT22;9921;47.186;9.778;2023-06-22T02:00:00;21.90;99.90
19552;DHT22;9921;47.186;9.778;2023-06-22T02:02:32;22.00;99.90
19552;DHT22;9921;47.186;9.778;2023-06-22T02:05:05;22.10;99.90
19552;DHT22;9921;47.186;9.778;2023-06-22T02:07:37;22.10;99.90
19552;DHT22;9921;47.186;9.778;2023-06-22T02:10:07;22.20;99.90
19552;DHT22;9921;47.186;9.778;2023-06-22T02:12:38;22.20;99.90
19552;DHT22;9921;47.186;9.778;2023-06-22T02:15:07;22.20;99.90
19552;DHT22;9921;47.186;9.778;2023-06-22T02:17:35;22.20;99.90
19552;DHT22;9921;47.186;9.778;2023-06-22T02:20:05;21.90;99.90
19552;DHT22;9921;47.186;9.778;2023-06-22T02:22:34;21.90;99.90
19552;DHT22;9921;47.186;9.778;2023-06-22T02:25:01;22.00;99.90
19552;DHT22;9921;47.186;9.778;2023-06-22T02:27:28;22.10;99.90
19552;DHT22;9921;47.186;9.778;2023-06-22T02:29:54;22.10;99.90
19552;DHT22;9921;47.186;9.778;2023-06-22T02:32:21;22.20;99.90
19552;DHT22;9921;47.186;9.778;2023-06-22T02:34:48;22.20;99.90
19552;DHT22;9921;47.186;9.778;2023-06-22T02:37:17;22.20;99.90
19552;DHT22;9921;47.186;9.778;2023-06-22T02:39:44;22.20;99.90
19552;DHT22;9921;47.186;9.778;2023-06-22T02:42:11;22.20;99.90
19552;DHT22;9921;47.186;9.778;2023-06-22T02:44:38;22.10;99.90
19552;DHT22;9921;47.186;9.778;2023-06-22T02:47:05;22.10;99.90
19552;DHT22;9921;47.186;9.778;2023-06-22T02:49:32;22.10;99.90
19552;DHT22;9921;47.186;9.778;2023-06-22T02:51:59;22.10;99.90
19552;DHT22;9921;47.186;9.778;2023-06-22T02:54:27;22.20;99.90
19552;DHT22;9921;47.186;9.778;2023-06-22T02:56:54;22.20;99.90
19552;DHT22;9921;47.186;9.778;2023-06-22T02:59:21;22.20;99.90
19552;DHT22;9921;47.186;9.778;2023-06-22T03:01:49;22.30;99.90
19552;DHT22;9921;47.186;9.778;2023-06-22T03:04:16;22.30;99.90
19552;DHT22;9921;47.186;9.778;2023-06-22T03:06:43;22.30;99.90
19552;DHT22;9921;47.186;9.778;2023-06-22T03:09:10;22.30;99.90
19552;DHT22;9921;47.186;9.778;2023-06-22T03:11:38;22.30;99.90
19552;DHT22;9921;47.186;9.778;2023-06-22T03:14:05;22.40;99.90
19552;DHT22;9921;47.186;9.778;2023-06-22T03:16:32;22.40;99.90
19552;DHT22;9921;47.186;9.778;2023-06-22T03:18:59;22.40;99.90
19552;DHT22;9921;47.186;9.778;2023-06-22T03:21:28;22.50;99.90
19552;DHT22;9921;47.186;9.778;2023-06-22T03:23:55;22.50;99.90
19552;DHT22;9921;47.186;9.778;2023-06-22T03:26:22;22.50;99.90
19552;DHT22;9921;47.186;9.778;2023-06-22T03:28:53;22.60;99.90
19552;DHT22;9921;47.186;9.778;2023-06-22T03:31:20;22.60;99.90
19552;DHT22;9921;47.186;9.778;2023-06-22T03:33:47;22.60;99.90
19552;DHT22;9921;47.186;9.778;2023-06-22T03:36:15;22.70;99.90
19552;DHT22;9921;47.186;9.778;2023-06-22T03:38:44;22.70;99.90
19552;DHT22;9921;47.186;9.778;2023-06-22T03:41:12;22.80;99.90
19552;DHT22;9921;47.186;9.778;2023-06-22T03:43:39;22.80;99.90
19552;DHT22;9921;47.186;9.778;2023-06-22T03:46:07;22.80;99.90
19552;DHT22;9921;47.186;9.778;2023-06-22T03:48:34;22.80;99.90
19552;DHT22;9921;47.186;9.778;2023-06-22T03:51:02;22.80;99.90
19552;DHT22;9921;47.186;9.778;2023-06-22T03:53:29;22.80;99.90
19552;DHT22;9921;47.186;9.778;2023-06-22T03:55:57;22.80;99.90
19552;DHT22;9921;47.186;9.778;2023-06-22T03:58:24;22.80;99.90
19552;DHT22;9921;47.186;9.778;2023-06-22T04:00:51;22.80;99.90
19552;DHT22;9921;47.186;9.778;2023-06-22T04:03:20;22.90;99.90
19552;DHT22;9921;47.186;9.778;2023-06-22T04:05:47;22.80;99.90
19552;DHT22;9921;47.186;9.778;2023-06-22T04:08:14;22.80;99.90
19552;DHT22;9921;47.186;9.778;2023-06-22T04:10:41;22.80;99.90
19552;DHT22;9921;47.186;9.778;2023-06-22T04:13:08;22.80;99.90
19552;DHT22;9921;47.186;9.778;2023-06-22T04:15:35;22.80;99.90
19552;DHT22;9921;47.186;9.778;2023-06-22T04:18:03;22.60;99.90
19552;DHT22;9921;47.186;9.778;2023-06-22T04:20:31;22.70;99.90
19552;DHT22;9921;47.186;9.778;2023-06-22T04:22:58;22.80;99.90
19552;DHT22;9921;47.186;9.778;2023-06-22T04:25:25;22.80;99.90
19552;DHT22;9921;47.186;9.778;2023-06-22T04:27:52;22.80;99.90
19552;DHT22;9921;47.186;9.778;2023-06-22T04:30:19;22.80;99.90
19552;DHT22;9921;47.186;9.778;2023-06-22T04:32:46;22.80;99.90
19552;DHT22;9921;47.186;9.778;2023-06-22T04:35:23;22.90;99.90
19552;DHT22;9921;47.186;9.778;2023-06-22T04:37:52;22.90;99.90
19552;DHT22;9921;47.186;9.778;2023-06-22T04:40:21;22.90;99.90
19552;DHT22;9921;47.186;9.778;2023-06-22T04:42:48;22.90;99.90
19552;DHT22;9921;47.186;9.778;2023-06-22T04:45:18;22.80;99.90
19552;DHT22;9921;47.186;9.778;2023-06-22T04:47:45;22.90;99.90
19552;DHT22;9921;47.186;9.778;2023-06-22T04:50:12;22.90;99.90
19552;DHT22;9921;47.186;9.778;2023-06-22T04:52:39;22.80;99.90
19552;DHT22;9921;47.186;9.778;2023-06-22T04:55:08;22.80;99.90
19552;DHT22;9921;47.186;9.778;2023-06-22T04:57:35;22.90;99.90
19552;DHT22;9921;47.186;9.778;2023-06-22T05:00:06;23.00;99.90
19552;DHT22;9921;47.186;9.778;2023-06-22T05:02:42;22.90;99.90
19552;DHT22;9921;47.186;9.778;2023-06-22T05:05:08;22.80;99.90
19552;DHT22;9921;47.186;9.778;2023-06-22T05:07:39;22.80;99.90
19552;DHT22;9921;47.186;9.778;2023-06-22T05:10:10;22.90;99.90
19552;DHT22;9921;47.186;9.778;2023-06-22T05:12:38;22.90;99.90
19552;DHT22;9921;47.186;9.778;2023-06-22T05:15:06;22.90;99.90
19552;DHT22;9921;47.186;9.778;2023-06-22T05:17:33;22.90;99.90
19552;DHT22;9921;47.186;9.778;2023-06-22T05:20:00;23.00;99.90
19552;DHT22;9921;47.186;9.778;2023-06-22T05:22:28;23.00;99.90
19552;DHT22;9921;47.186;9.778;2023-06-22T05:24:54;23.10;99.90
19552;DHT22;9921;47.186;9.778;2023-06-22T05:27:23;23.20;99.90
19552;DHT22;9921;47.186;9.778;2023-06-22T05:29:49;23.20;99.90
19552;DHT22;9921;47.186;9.778;2023-06-22T05:32:16;23.30;99.90
19552;DHT22;9921;47.186;9.778;2023-06-22T05:34:44;23.30;99.90
19552;DHT22;9921;47.186;9.778;2023-06-22T05:37:11;23.40;99.90
19552;DHT22;9921;47.186;9.778;2023-06-22T05:39:38;23.40;99.90
19552;DHT22;9921;47.186;9.778;2023-06-22T05:42:05;23.40;99.90
19552;DHT22;9921;47.186;9.778;2023-06-22T05:44:33;23.50;99.90
19552;DHT22;9921;47.186;9.778;2023-06-22T05:47:00;23.50;99.90
19552;DHT22;9921;47.186;9.778;2023-06-22T05:49:28;23.50;99.90
19552;DHT22;9921;47.186;9.778;2023-06-22T05:51:58;23.50;99.90
19552;DHT22;9921;47.186;9.778;2023-06-22T05:54:25;23.60;99.90
19552;DHT22;9921;47.186;9.778;2023-06-22T05:56:52;23.70;99.90
19552;DHT22;9921;47.186;9.778;2023-06-22T05:59:19;23.80;99.90
19552;DHT22;9921;47.186;9.778;2023-06-22T06:01:47;23.80;99.90
19552;DHT22;9921;47.186;9.778;2023-06-22T06:04:16;23.80;99.90
19552;DHT22;9921;47.186;9.778;2023-06-22T06:06:43;23.80;99.90
19552;DHT22;9921;47.186;9.778;2023-06-22T06:09:10;24.00;99.90
19552;DHT22;9921;47.186;9.778;2023-06-22T06:11:37;24.10;99.90
19552;DHT22;9921;47.186;9.778;2023-06-22T06:14:04;24.20;99.90
19552;DHT22;9921;47.186;9.778;2023-06-22T06:16:32;24.20;99.90
19552;DHT22;9921;47.186;9.778;2023-06-22T06:19:00;24.20;99.90
19552;DHT22;9921;47.186;9.778;2023-06-22T06:21:27;24.40;99.90
19552;DHT22;9921;47.186;9.778;2023-06-22T06:23:53;24.40;99.90
19552;DHT22;9921;47.186;9.778;2023-06-22T06:26:20;24.50;99.90
19552;DHT22;9921;47.186;9.778;2023-06-22T06:28:55;24.60;99.90
19552;DHT22;9921;47.186;9.778;2023-06-22T06:31:22;24.70;99.90
19552;DHT22;9921;47.186;9.778;2023-06-22T06:33:50;24.80;99.90
19552;DHT22;9921;47.186;9.778;2023-06-22T06:36:18;24.80;99.90
19552;DHT22;9921;47.186;9.778;2023-06-22T06:38:45;25.00;99.90
19552;DHT22;9921;47.186;9.778;2023-06-22T06:41:12;25.00;99.90
19552;DHT22;9921;47.186;9.778;2023-06-22T06:43:39;25.00;99.90
19552;DHT22;9921;47.186;9.778;2023-06-22T06:46:08;25.00;99.90
19552;DHT22;9921;47.186;9.778;2023-06-22T06:48:34;25.10;99.90
19552;DHT22;9921;47.186;9.778;2023-06-22T06:51:01;25.20;99.90
19552;DHT22;9921;47.186;9.778;2023-06-22T06:53:30;25.30;99.90
19552;DHT22;9921;47.186;9.778;2023-06-22T06:55:57;25.50;99.90
19552;DHT22;9921;47.186;9.778;2023-06-22T06:58:24;25.60;99.90
19552;DHT22;9921;47.186;9.778;2023-06-22T07:00:50;25.70;99.90
19552;DHT22;9921;47.186;9.778;2023-06-22T07:03:17;25.80;99.90
19552;DHT22;9921;47.186;9.778;2023-06-22T07:05:44;25.90;99.90
19552;DHT22;9921;47.186;9.778;2023-06-22T07:08:11;26.00;99.90
19552;DHT22;9921;47.186;9.778;2023-06-22T07:10:39;26.10;99.90
19552;DHT22;9921;47.186;9.778;2023-06-22T07:13:06;26.20;99.90
19552;DHT22;9921;47.186;9.778;2023-06-22T07:15:33;26.20;99.90
19552;DHT22;9921;47.186;9.778;2023-06-22T07:18:00;26.20;99.90
19552;DHT22;9921;47.186;9.778;2023-06-22T07:20:27;26.20;99.90
19552;DHT22;9921;47.186;9.778;2023-06-22T07:22:54;26.20;99.90
19552;DHT22;9921;47.186;9.778;2023-06-22T07:25:20;26.20;99.90
19552;DHT22;9921;47.186;9.778;2023-06-22T07:27:57;26.20;99.90
19552;DHT22;9921;47.186;9.778;2023-06-22T07:30:25;26.20;99.90
19552;DHT22;9921;47.186;9.778;2023-06-22T07:32:52;26.20;99.90
19552;DHT22;9921;47.186;9.778;2023-06-22T07:35:19;26.20;99.90
19552;DHT22;9921;47.186;9.778;2023-06-22T07:37:46;26.20;99.90
19552;DHT22;9921;47.186;9.778;2023-06-22T07:40:13;26.10;99.90
19552;DHT22;9921;47.186;9.778;2023-06-22T07:42:40;26.30;99.90
19552;DHT22;9921;47.186;9.778;2023-06-22T07:45:09;26.40;99.90
19552;DHT22;9921;47.186;9.778;2023-06-22T07:47:36;26.50;99.90
19552;DHT22;9921;47.186;9.778;2023-06-22T07:50:03;26.60;99.90
19552;DHT22;9921;47.186;9.778;2023-06-22T07:52:30;26.50;99.90
19552;DHT22;9921;47.186;9.778;2023-06-22T07:54:57;26.50;99.90
19552;DHT22;9921;47.186;9.778;2023-06-22T07:57:24;26.50;99.90
19552;DHT22;9921;47.186;9.778;2023-06-22T07:59:57;26.40;99.90
19552;DHT22;9921;47.186;9.778;2023-06-22T08:02:26;26.40;99.90
19552;DHT22;9921;47.186;9.778;2023-06-22T08:04:53;26.50;99.90
19552;DHT22;9921;47.186;9.778;2023-06-22T08:07:20;26.40;99.90
19552;DHT22;9921;47.186;9.778;2023-06-22T08:09:47;26.50;99.90
19552;DHT22;9921;47.186;9.778;2023-06-22T08:12:14;26.60;99.90
19552;DHT22;9921;47.186;9.778;2023-06-22T08:14:42;26.60;99.90
19552;DHT22;9921;47.186;9.778;2023-06-22T08:17:09;26.70;99.90
19552;DHT22;9921;47.186;9.778;2023-06-22T08:19:39;26.90;99.90
19552;DHT22;9921;47.186;9.778;2023-06-22T08:22:06;27.00;99.90
19552;DHT22;9921;47.186;9.778;2023-06-22T08:24:33;27.20;99.90
19552;DHT22;9921;47.186;9.778;2023-06-22T08:27:00;27.40;99.90
19552;DHT22;9921;47.186;9.778;2023-06-22T08:29:26;27.70;99.90
19552;DHT22;9921;47.186;9.778;2023-06-22T08:31:53;28.00;99.90
19552;DHT22;9921;47.186;9.778;2023-06-22T08:34:20;28.30;99.90
19552;DHT22;9921;47.186;9.778;2023-06-22T08:36:51;28.60;99.90
19552;DHT22;9921;47.186;9.778;2023-06-22T08:39:19;28.90;99.90
19552;DHT22;9921;47.186;9.778;2023-06-22T08:41:46;29.20;99.90
19552;DHT22;9921;47.186;9.778;2023-06-22T08:44:13;29.50;99.90
19552;DHT22;9921;47.186;9.778;2023-06-22T08:46:39;29.70;99.90
19552;DHT22;9921;47.186;9.778;2023-06-22T08:49:07;29.80;99.90
19552;DHT22;9921;47.186;9.778;2023-06-22T08:51:35;29.90;99.90
19552;DHT22;9921;47.186;9.778;2023-06-22T08:54:03;30.00;99.90
19552;DHT22;9921;47.186;9.778;2023-06-22T08:56:30;30.00;99.90
19552;DHT22;9921;47.186;9.778;2023-06-22T08:58:57;30.00;99.90
19552;DHT22;9921;47.186;9.778;2023-06-22T09:01:24;30.10;99.90
19552;DHT22;9921;47.186;9.778;2023-06-22T09:03:50;30.10;99.90
19552;DHT22;9921;47.186;9.778;2023-06-22T09:06:22;30.10;99.90
19552;DHT22;9921;47.186;9.778;2023-06-22T09:08:49;30.00;99.90
19552;DHT22;9921;47.186;9.778;2023-06-22T09:11:18;29.80;99.90
19552;DHT22;9921;47.186;9.778;2023-06-22T09:13:44;29.80;99.90
19552;DHT22;9921;47.186;9.778;2023-06-22T09:16:11;29.80;99.90
19552;DHT22;9921;47.186;9.778;2023-06-22T09:18:38;29.90;99.90
19552;DHT22;9921;47.186;9.778;2023-06-22T09:21:05;29.80;99.90
19552;DHT22;9921;47.186;9.778;2023-06-22T09:23:32;29.90;99.90
19552;DHT22;9921;47.186;9.778;2023-06-22T09:25:59;29.80;99.90
19552;DHT22;9921;47.186;9.778;2023-06-22T09:28:28;29.80;99.90
19552;DHT22;9921;47.186;9.778;2023-06-22T09:30:54;29.70;99.90
19552;DHT22;9921;47.186;9.778;2023-06-22T09:33:23;29.60;99.90
19552;DHT22;9921;47.186;9.778;2023-06-22T09:35:50;29.60;99.90
19552;DHT22;9921;47.186;9.778;2023-06-22T09:38:17;29.50;99.90
19552;DHT22;9921;47.186;9.778;2023-06-22T09:40:44;29.40;99.90
19552;DHT22;9921;47.186;9.778;2023-06-22T09:43:11;29.40;99.90
19552;DHT22;9921;47.186;9.778;2023-06-22T09:45:39;29.40;99.90
19552;DHT22;9921;47.186;9.778;2023-06-22T09:48:06;29.50;99.90
19552;DHT22;9921;47.186;9.778;2023-06-22T09:50:35;29.50;99.90
19552;DHT22;9921;47.186;9.778;2023-06-22T09:53:02;29.50;99.90
19552;DHT22;9921;47.186;9.778;2023-06-22T09:55:29;29.60;99.90
19552;DHT22;9921;47.186;9.778;2023-06-22T09:57:56;29.70;99.90
19552;DHT22;9921;47.186;9.778;2023-06-22T10:00:23;29.80;99.90
19552;DHT22;9921;47.186;9.778;2023-06-22T10:02:53;29.90;99.90
19552;DHT22;9921;47.186;9.778;2023-06-22T10:05:21;29.90;99.90
19552;DHT22;9921;47.186;9.778;2023-06-22T10:07:48;29.80;99.90
19552;DHT22;9921;47.186;9.778;2023-06-22T10:10:15;29.70;99.90
19552;DHT22;9921;47.186;9.778;2023-06-22T10:12:46;29.50;99.90
19552;DHT22;9921;47.186;9.778;2023-06-22T10:15:13;29.40;99.90
19552;DHT22;9921;47.186;9.778;2023-06-22T10:17:40;29.40;99.90
19552;DHT22;9921;47.186;9.778;2023-06-22T10:20:09;29.40;99.90
19552;DHT22;9921;47.186;9.778;2023-06-22T10:22:39;29.30;99.90
19552;DHT22;9921;47.186;9.778;2023-06-22T10:25:07;29.20;99.90
19552;DHT22;9921;47.186;9.778;2023-06-22T10:27:34;29.20;99.90
19552;DHT22;9921;47.186;9.778;2023-06-22T10:30:01;29.30;99.90
19552;DHT22;9921;47.186;9.778;2023-06-22T10:32:28;29.30;99.90
19552;DHT22;9921;47.186;9.778;2023-06-22T10:34:55;29.30;99.90
19552;DHT22;9921;47.186;9.778;2023-06-22T10:37:23;29.40;99.90
19552;DHT22;9921;47.186;9.778;2023-06-22T10:39:50;29.30;99.90
19552;DHT22;9921;47.186;9.778;2023-06-22T10:42:17;29.30;99.90
19552;DHT22;9921;47.186;9.778;2023-06-22T10:44:44;29.20;99.90
19552;DHT22;9921;47.186;9.778;2023-06-22T10:47:10;29.10;99.90
19552;DHT22;9921;47.186;9.778;2023-06-22T10:49:38;28.80;99.90
19552;DHT22;9921;47.186;9.778;2023-06-22T10:52:06;28.80;99.90
19552;DHT22;9921;47.186;9.778;2023-06-22T10:54:35;28.70;99.90
19552;DHT22;9921;47.186;9.778;2023-06-22T10:57:02;28.70;99.90
19552;DHT22;9921;47.186;9.778;2023-06-22T10:59:29;28.70;99.90
19552;DHT22;9921;47.186;9.778;2023-06-22T11:01:56;28.80;99.90
19552;DHT22;9921;47.186;9.778;2023-06-22T11:04:23;28.80;99.90
19552;DHT22;9921;47.186;9.778;2023-06-22T11:06:50;28.80;99.90
19552;DHT22;9921;47.186;9.778;2023-06-22T11:09:17;28.90;99.90
19552;DHT22;9921;47.186;9.778;2023-06-22T11:11:49;28.90;99.90
19552;DHT22;9921;47.186;9.778;2023-06-22T11:14:16;28.90;99.90
19552;DHT22;9921;47.186;9.778;2023-06-22T11:16:43;29.00;99.90
19552;DHT22;9921;47.186;9.778;2023-06-22T11:19:10;29.20;99.90
19552;DHT22;9921;47.186;9.778;2023-06-22T11:21:36;29.20;99.90
19552;DHT22;9921;47.186;9.778;2023-06-22T11:24:04;29.30;99.90
19552;DHT22;9921;47.186;9.778;2023-06-22T11:26:31;29.40;99.90
19552;DHT22;9921;47.186;9.778;2023-06-22T11:28:59;29.60;99.90
19552;DHT22;9921;47.186;9.778;2023-06-22T11:31:26;29.70;99.90
19552;DHT22;9921;47.186;9.778;2023-06-22T11:33:53;29.80;99.90
19552;DHT22;9921;47.186;9.778;2023-06-22T11:36:20;29.90;99.90
19552;DHT22;9921;47.186;9.778;2023-06-22T11:38:47;30.00;99.90
19552;DHT22;9921;47.186;9.778;2023-06-22T11:41:14;30.10;99.90
19552;DHT22;9921;47.186;9.778;2023-06-22T11:43:41;30.20;99.90
19552;DHT22;9921;47.186;9.778;2023-06-22T11:46:09;30.30;99.90
19552;DHT22;9921;47.186;9.778;2023-06-22T11:48:36;30.40;99.90
19552;DHT22;9921;47.186;9.778;2023-06-22T11:51:03;30.40;99.90
19552;DHT22;9921;47.186;9.778;2023-06-22T11:53:31;30.40;99.90
19552;DHT22;9921;47.186;9.778;2023-06-22T11:55:59;30.40;99.90
19552;DHT22;9921;47.186;9.778;2023-06-22T11:58:27;30.40;99.90
19552;DHT22;9921;47.186;9.778;2023-06-22T12:00:53;30.40;99.90
19552;DHT22;9921;47.186;9.778;2023-06-22T12:03:22;30.20;99.90
19552;DHT22;9921;47.186;9.778;2023-06-22T12:05:49;30.20;99.90
19552;DHT22;9921;47.186;9.778;2023-06-22T12:08:17;30.20;99.90
19552;DHT22;9921;47.186;9.778;2023-06-22T12:10:44;30.10;99.90
19552;DHT22;9921;47.186;9.778;2023-06-22T12:13:11;30.00;99.90
19552;DHT22;9921;47.186;9.778;2023-06-22T12:15:38;29.80;99.90
19552;DHT22;9921;47.186;9.778;2023-06-22T12:18:05;29.90;99.90
19552;DHT22;9921;47.186;9.778;2023-06-22T12:20:33;29.90;99.90
19552;DHT22;9921;47.186;9.778;2023-06-22T12:23:01;30.00;99.90
19552;DHT22;9921;47.186;9.778;2023-06-22T12:25:28;30.00;99.90
19552;DHT22;9921;47.186;9.778;2023-06-22T12:27:54;29.90;99.90
19552;DHT22;9921;47.186;9.778;2023-06-22T12:30:21;30.00;99.90
19552;DHT22;9921;47.186;9.778;2023-06-22T12:32:48;30.00;99.90
19552;DHT22;9921;47.186;9.778;2023-06-22T12:35:17;30.00;99.90
19552;DHT22;9921;47.186;9.778;2023-06-22T12:37:45;30.30;99.90
19552;DHT22;9921;47.186;9.778;2023-06-22T12:40:12;30.40;99.90
19552;DHT22;9921;47.186;9.778;2023-06-22T12:42:39;30.40;99.90
19552;DHT22;9921;47.186;9.778;2023-06-22T12:45:08;30.60;99.90
19552;DHT22;9921;47.186;9.778;2023-06-22T12:47:35;30.70;99.90
19552;DHT22;9921;47.186;9.778;2023-06-22T12:50:02;30.80;99.90
19552;DHT22;9921;47.186;9.778;2023-06-22T12:52:30;30.80;99.90
19552;DHT22;9921;47.186;9.778;2023-06-22T12:54:58;30.90;99.90
19552;DHT22;9921;47.186;9.778;2023-06-22T12:57:25;30.90;99.90
19552;DHT22;9921;47.186;9.778;2023-06-22T12:59:52;30.90;99.90
19552;DHT22;9921;47.186;9.778;2023-06-22T13:02:19;30.90;99.90
19552;DHT22;9921;47.186;9.778;2023-06-22T13:04:45;30.80;99.90
19552;DHT22;9921;47.186;9.778;2023-06-22T13:07:12;30.80;99.90
19552;DHT22;9921;47.186;9.778;2023-06-22T13:09:39;30.80;99.90
19552;DHT22;9921;47.186;9.778;2023-06-22T13:12:08;30.90;99.90
19552;DHT22;9921;47.186;9.778;2023-06-22T13:14:35;31.00;99.90
19552;DHT22;9921;47.186;9.778;2023-06-22T13:17:02;31.10;99.90
19552;DHT22;9921;47.186;9.778;2023-06-22T13:19:29;31.20;99.90
19552;DHT22;9921;47.186;9.778;2023-06-22T13:21:58;31.20;99.90
19552;DHT22;9921;47.186;9.778;2023-06-22T13:24:25;31.30;99.90
19552;DHT22;9921;47.186;9.778;2023-06-22T13:26:52;31.40;99.90
19552;DHT22;9921;47.186;9.778;2023-06-22T13:29:20;31.40;99.90
19552;DHT22;9921;47.186;9.778;2023-06-22T13:31:47;31.40;99.90
19552;DHT22;9921;47.186;9.778;2023-06-22T13:34:15;31.50;99.90
19552;DHT22;9921;47.186;9.778;2023-06-22T13:36:42;31.60;99.90
19552;DHT22;9921;47.186;9.778;2023-06-22T13:39:09;31.60;99.90
19552;DHT22;9921;47.186;9.778;2023-06-22T13:41:36;31.60;99.90
19552;DHT22;9921;47.186;9.778;2023-06-22T13:44:03;31.70;99.90
19552;DHT22;9921;47.186;9.778;2023-06-22T13:46:31;31.80;99.90
19552;DHT22;9921;47.186;9.778;2023-06-22T13:48:58;31.90;99.90
19552;DHT22;9921;47.186;9.778;2023-06-22T13:51:25;31.80;99.90
19552;DHT22;9921;47.186;9.778;2023-06-22T13:53:52;31.80;99.90
19552;DHT22;9921;47.186;9.778;2023-06-22T13:56:19;31.60;99.90
19552;DHT22;9921;47.186;9.778;2023-06-22T13:58:47;31.50;99.90
19552;DHT22;9921;47.186;9.778;2023-06-22T14:01:14;31.30;99.90
19552;DHT22;9921;47.186;9.778;2023-06-22T14:03:42;31.20;99.90
19552;DHT22;9921;47.186;9.778;2023-06-22T14:06:11;30.90;99.90
19552;DHT22;9921;47.186;9.778;2023-06-22T14:08:38;30.90;99.90
19552;DHT22;9921;47.186;9.778;2023-06-22T14:11:04;30.70;99.90
19552;DHT22;9921;47.186;9.778;2023-06-22T14:13:31;30.70;99.90
19552;DHT22;9921;47.186;9.778;2023-06-22T14:15:58;30.60;99.90
19552;DHT22;9921;47.186;9.778;2023-06-22T14:18:25;30.50;99.90
19552;DHT22;9921;47.186;9.778;2023-06-22T14:20:53;30.60;99.90
19552;DHT22;9921;47.186;9.778;2023-06-22T14:23:20;30.50;99.90
19552;DHT22;9921;47.186;9.778;2023-06-22T14:25:47;30.50;99.90
19552;DHT22;9921;47.186;9.778;2023-06-22T14:28:14;30.40;99.90
19552;DHT22;9921;47.186;9.778;2023-06-22T14:30:41;30.40;99.90
19552;DHT22;9921;47.186;9.778;2023-06-22T14:33:08;30.30;99.90
19552;DHT22;9921;47.186;9.778;2023-06-22T14:35:35;30.20;99.90
19552;DHT22;9921;47.186;9.778;2023-06-22T14:38:03;30.30;99.90
19552;DHT22;9921;47.186;9.778;2023-06-22T14:40:30;30.20;99.90
19552;DHT22;9921;47.186;9.778;2023-06-22T14:42:57;30.20;99.90
19552;DHT22;9921;47.186;9.778;2023-06-22T14:45:24;30.20;99.90
19552;DHT22;9921;47.186;9.778;2023-06-22T14:47:51;30.20;99.90
19552;DHT22;9921;47.186;9.778;2023-06-22T14:50:18;30.10;99.90
19552;DHT22;9921;47.186;9.778;2023-06-22T14:52:44;30.00;99.90
19552;DHT22;9921;47.186;9.778;2023-06-22T14:55:13;29.90;99.90
19552;DHT22;9921;47.186;9.778;2023-06-22T14:57:40;29.70;99.90
19552;DHT22;9921;47.186;9.778;2023-06-22T15:00:07;29.70;99.90
19552;DHT22;9921;47.186;9.778;2023-06-22T15:02:34;29.60;99.90
19552;DHT22;9921;47.186;9.778;2023-06-22T15:05:01;29.50;99.90
19552;DHT22;9921;47.186;9.778;2023-06-22T15:07:28;29.40;99.90
19552;DHT22;9921;47.186;9.778;2023-06-22T15:09:55;29.40;99.90
19552;DHT22;9921;47.186;9.778;2023-06-22T15:12:23;29.50;99.90
19552;DHT22;9921;47.186;9.778;2023-06-22T15:14:50;29.60;99.90
19552;DHT22;9921;47.186;9.778;2023-06-22T15:17:17;29.60;99.90
19552;DHT22;9921;47.186;9.778;2023-06-22T15:19:44;29.70;99.90
19552;DHT22;9921;47.186;9.778;2023-06-22T15:22:10;29.80;99.90
19552;DHT22;9921;47.186;9.778;2023-06-22T15:24:38;29.90;99.90
19552;DHT22;9921;47.186;9.778;2023-06-22T15:27:05;30.00;99.90
19552;DHT22;9921;47.186;9.778;2023-06-22T15:29:33;30.00;99.90
19552;DHT22;9921;47.186;9.778;2023-06-22T15:32:00;30.10;99.90
19552;DHT22;9921;47.186;9.778;2023-06-22T15:34:28;30.20;99.90
19552;DHT22;9921;47.186;9.778;2023-06-22T15:36:55;30.20;99.90
19552;DHT22;9921;47.186;9.778;2023-06-22T15:39:21;30.10;99.90
19552;DHT22;9921;47.186;9.778;2023-06-22T15:41:50;29.90;99.90
19552;DHT22;9921;47.186;9.778;2023-06-22T15:44:19;29.80;99.90
19552;DHT22;9921;47.186;9.778;2023-06-22T15:46:47;29.60;99.90